F/V Adeline Stephen — FGUF — position and weather

sailwx.info

Track history (hours):
 
Tides and Currents Weather Stations Pressure Air Temp Water Temp Dewpoint Dewpoint Depression Visibility Wind Speed Wind Dir Waves Ship Positions

F/V Adeline Stephen

Last reported at 2014-Sep-20 04:33 UTC. Time now 2014-Sep-23 00:22 UTC.
Position N 47°44' W 003°22'.

Length 18 m.

Type: Fishing. MMSI: 228929000.

Date/timePositionNaut miles runAvg speedWind from/ knotsBaromVisibWave heightAir tempDewpointWater temp
2014-Sep-20 04:33N 47°44' W 003°22'4 4.3
2014-Sep-20 03:33N 47°41' W 003°26'9 8.9
2014-Sep-20 02:33N 47°40' W 003°39'25 8.3
2014-Sep-19 23:33N 47°43' W 004°16'8 8.4
2014-Sep-19 22:33N 47°47' W 004°27'17 8.3
2014-Sep-19 20:33N 47°55' W 004°49'8 8.2
2014-Sep-19 19:33N 47°58' W 005°00'8 8.5
2014-Sep-19 18:33N 48°01' W 005°12'27 8.9
2014-Sep-19 15:33N 48°14' W 005°48'  
2014-Sep-11 02:33N 48°13' W 005°45'10 9.9
2014-Sep-11 01:33N 48°09' W 005°32'1010.0
2014-Sep-11 00:33N 48°04' W 005°19'  
Track history (hours):
 
Tides and Currents Weather Stations Pressure Air Temp Water Temp Dewpoint Dewpoint Depression Visibility Wind Speed Wind Dir Waves Ship Positions

F/V Adeline Stephen

Last reported at 2014-Sep-20 04:33 UTC. Time now 2014-Sep-23 00:22 UTC.
Position N 47°44' W 003°22'.

Length 18 m.

Type: Fishing. MMSI: 228929000.

Date/timePositionNaut miles runAvg speedWind from/ knotsBaromVisibWave heightAir tempDewpointWater temp
2014-Sep-20 04:33N 47°44' W 003°22'4 4.3
2014-Sep-20 03:33N 47°41' W 003°26'9 8.9
2014-Sep-20 02:33N 47°40' W 003°39'25 8.3
2014-Sep-19 23:33N 47°43' W 004°16'8 8.4
2014-Sep-19 22:33N 47°47' W 004°27'17 8.3
2014-Sep-19 20:33N 47°55' W 004°49'8 8.2
2014-Sep-19 19:33N 47°58' W 005°00'8 8.5
2014-Sep-19 18:33N 48°01' W 005°12'27 8.9
2014-Sep-19 15:33N 48°14' W 005°48'  
2014-Sep-11 02:33N 48°13' W 005°45'10 9.9
2014-Sep-11 01:33N 48°09' W 005°32'1010.0
2014-Sep-11 00:33N 48°04' W 005°19'  

Dump ship's entire track history